Terminal Aerodrome Forecast
Issued by NWS Cleveland, OH

Home | Current Version | Previous Version | Graphics & Text | Print | Product List | Glossary On
Versions: 1 2 3 4 5 6 7 8 9 10 11 12 13 14 15 16 17
000
FTUS41 KCLE 251500 AAA
TAFTOL
TAF AMD
KTOL 251529Z 2515/2612 24018G28KT P6SM OVC025
     FM251800 25015G25KT P6SM OVC030
     FM252100 26012KT P6SM OVC035
     FM260000 27006KT P6SM SCT035=

USA.gov is the U.S. government's official web portal to all federal, state and local government web resources and services.